Latest Weather Observations for Thargomindah

IDQ60801

Issued at 5:05 pm EST Wednesday 16 April 2014 (issued every 30 minutes, with the page automatically refreshed every 10 minutes)

About weather observations | Map of weather stations | Latest weather observations for QLD | Other Formats
Station Details ID: 045025 Name: THARGOMINDAH AIRPORT Lat: -27.99 Lon: 143.81 Height: 130.89 m
Data from the previous 72 hours. | See also: Recent months at Thargomindah
Date/Time
EST
Temp
°C
App
Temp
°C
Dew
Point
Rel
Hum
%
Delta-T
°C
Wind Press
QNH
hPa
Press
MSL
hPa
Rain
since 9 am
mm
Dir
 
Spd
km/h
Gust
km/h
Spd
kts
Gust
kts
16/05:00pm 27.0 22.4 3.5 22 11.7 SE 17 22 9 12 1016.0 - 0.0
16/04:30pm 27.6 22.7 4.0 22 12.0 S 19 26 10 14 1015.6 - 0.0
16/04:00pm 27.4 22.3 3.2 21 12.1 SSE 19 26 10 14 1015.8 - 0.0
16/03:30pm 27.4 22.2 3.8 22 11.9 SSE 20 33 11 18 1016.1 - 0.0
16/03:00pm 28.1 23.2 5.0 23 11.9 S 20 32 11 17 1016.3 1015.6 0.0
16/02:30pm 26.9 21.5 4.6 24 11.4 S 22 32 12 17 1016.6 - 0.0
16/02:00pm 26.9 22.2 5.2 25 11.2 S 19 28 10 15 1016.9 - 0.0
16/01:30pm 26.6 22.1 6.1 27 10.7 S 19 24 10 13 1017.2 - 0.0
16/01:00pm 25.9 21.3 5.5 27 10.5 SSW 19 22 10 12 1017.7 - 0.0
16/12:30pm 25.9 22.1 6.0 28 10.3 SSW 15 26 8 14 1018.3 - 0.0
16/12:00pm 25.3 20.8 4.4 26 10.5 SSW 17 32 9 17 1018.6 1017.9 0.0
16/11:30am 24.9 21.9 6.1 30 9.7 S 11 26 6 14 1018.9 - 0.0
16/11:00am 24.6 21.5 5.4 29 9.8 SSE 11 15 6 8 1019.2 - 0.0
16/10:30am 24.1 20.8 6.4 32 9.2 SE 13 20 7 11 1019.5 - 0.0
16/10:00am 23.4 20.2 6.7 34 8.7 SE 13 19 7 10 1019.5 - 0.0
16/09:30am 22.4 19.4 7.8 39 7.7 ESE 13 17 7 9 1019.4 - 0.0
16/09:00am 20.7 17.9 8.4 45 6.5 SE 13 17 7 9 1019.3 1018.7 0.0
16/08:30am 19.0 16.1 8.1 49 5.6 SE 13 17 7 9 1019.1 - 0.0
16/08:00am 17.5 14.8 7.3 51 5.1 SSE 11 15 6 8 1018.8 - 0.0
16/07:30am 16.0 13.6 7.0 55 4.5 SSE 9 11 5 6 1018.4 - 0.0
16/07:00am 15.1 13.1 6.9 58 4.0 SSE 7 9 4 5 1018.1 - 0.0
16/06:30am 15.2 12.8 7.0 58 4.1 SSE 9 11 5 6 1017.8 - 0.0
16/06:00am 15.5 13.1 7.0 57 4.2 SSE 9 11 5 6 1017.8 1017.1 0.0
16/05:30am 15.6 13.6 6.9 56 4.3 S 7 9 4 5 1017.6 - 0.0
16/05:00am 16.3 14.2 6.7 53 4.7 SSE 7 11 4 6 1017.2 - 0.0
16/04:30am 17.1 14.3 6.9 51 5.1 SSE 11 15 6 8 1017.2 - 0.0
16/04:00am 17.6 14.4 6.8 49 5.4 SSE 13 17 7 9 1017.1 - 0.0
16/03:30am 17.7 14.9 6.9 49 5.4 S 11 15 6 8 1017.1 - 0.0
16/03:00am 18.0 15.2 6.8 48 5.6 SSE 11 15 6 8 1016.9 1016.2 0.0
16/02:30am 18.1 14.8 6.6 47 5.7 SSE 13 15 7 8 1016.9 - 0.0
16/02:00am 18.1 15.2 6.3 46 5.9 SSE 11 15 6 8 1017.3 - 0.0
16/01:30am 18.2 15.2 6.1 45 6.0 SSE 11 11 6 6 1017.6 - 0.0
16/01:00am 18.9 16.3 6.1 43 6.4 SSE 9 11 5 6 1017.7 - 0.0
16/12:30am 19.5 16.5 5.9 41 6.8 SSE 11 13 6 7 1017.7 - 0.0
16/12:00am 20.1 17.0 5.7 39 7.2 S 11 13 6 7 1017.9 1017.2 0.0
 
Date/Time
EST
Temp
°C
App
Temp
°C
Dew
Point
Rel
Hum
%
Delta-T
°C
Wind Press
QNH
hPa
Press
MSL
hPa
Rain
since 9 am
mm
Dir
 
Spd
km/h
Gust
km/h
Spd
kts
Gust
kts
15/11:30pm 20.8 17.7 5.6 37 7.6 SSE 11 15 6 8 1017.9 - 0.0
15/11:00pm 21.5 18.0 5.4 35 8.0 SSE 13 17 7 9 1017.9 - 0.0
15/10:30pm 22.1 18.6 5.5 34 8.3 SSE 13 17 7 9 1017.8 - 0.0
15/10:00pm 22.1 18.6 5.5 34 8.3 S 13 15 7 8 1017.6 - 0.0
15/09:30pm 22.3 18.8 5.3 33 8.5 S 13 17 7 9 1017.4 - 0.0
15/09:00pm 22.9 19.4 5.3 32 8.8 S 13 15 7 8 1017.0 1016.3 0.0
15/08:30pm 23.4 20.2 5.3 31 9.1 S 11 13 6 7 1016.6 - 0.0
15/08:00pm 24.4 20.6 5.7 30 9.6 S 15 20 8 11 1016.2 - 0.0
15/07:30pm 25.1 20.9 5.8 29 9.9 S 17 22 9 12 1015.7 - 0.0
15/07:00pm 25.4 22.0 6.1 29 10.0 S 13 15 7 8 1015.4 - 0.0
15/06:30pm 26.3 22.6 6.3 28 10.5 S 15 20 8 11 1015.2 - 0.0
15/06:00pm 27.1 23.0 6.0 26 11.0 S 17 22 9 12 1014.9 1014.3 0.0
15/05:30pm 27.9 24.0 5.5 24 11.7 S 15 24 8 13 1014.5 - 0.0
15/05:00pm 28.3 24.1 5.8 24 11.8 S 17 32 9 17 1014.5 - 0.0
15/04:30pm 28.3 24.0 5.2 23 12.0 S 17 28 9 15 1014.3 - 0.0
15/04:00pm 28.9 25.5 5.7 23 12.2 S 13 24 7 13 1014.4 - 0.0
15/03:30pm 28.6 24.4 5.5 23 12.1 S 17 22 9 12 1014.4 - 0.0
15/03:00pm 28.9 24.1 5.7 23 12.2 S 20 26 11 14 1014.5 1013.9 0.0
15/02:30pm 28.8 25.5 6.2 24 12.0 S 13 20 7 11 1014.7 - 0.0
15/02:00pm 28.2 25.8 6.9 26 11.4 SE 9 15 5 8 1014.8 - 0.0
15/01:30pm 28.5 24.6 7.1 26 11.5 S 17 24 9 13 1015.0 - 0.0
15/01:00pm 27.6 23.8 7.5 28 10.8 S 17 20 9 11 1015.5 - 0.0
15/12:30pm 28.5 26.0 8.2 28 11.1 ESE 11 20 6 11 1016.0 - 0.0
15/12:00pm 27.4 25.3 8.3 30 10.4 ESE 9 15 5 8 1016.6 1015.9 0.0
15/11:30am 26.6 23.9 9.0 33 9.7 SE 13 22 7 12 1017.0 - 0.0
15/11:00am 25.7 23.4 9.1 35 9.1 SE 11 17 6 9 1017.3 - 0.0
15/10:30am 25.2 23.0 9.5 37 8.6 ESE 11 17 6 9 1017.4 - 0.0
15/10:00am 23.8 21.1 9.0 39 8.0 SE 13 19 7 10 1017.5 - 0.0
15/09:30am 23.0 20.3 9.0 41 7.5 ESE 13 17 7 9 1017.6 - 0.0
15/09:00am 22.2 19.3 9.7 45 6.8 SE 15 20 8 11 1017.4 1016.7 0.0
15/08:30am 20.5 17.8 9.1 48 6.1 SE 13 20 7 11 1017.2 - 0.0
15/08:00am 18.9 15.9 9.1 53 5.2 SE 15 20 8 11 1016.8 - 0.0
15/07:30am 17.7 15.3 8.8 56 4.6 SSE 11 13 6 7 1016.6 - 0.0
15/07:00am 16.8 14.8 8.8 59 4.1 SSE 9 11 5 6 1016.3 - 0.0
15/06:30am 16.8 14.4 8.8 59 4.1 SSE 11 13 6 7 1016.1 - 0.0
15/06:00am 17.3 14.9 8.7 57 4.5 SSE 11 15 6 8 1015.8 1015.2 0.0
15/05:30am 17.8 15.0 8.6 55 4.8 SSE 13 15 7 8 1015.6 - 0.0
15/05:00am 17.6 15.1 8.2 54 4.8 S 11 15 6 8 1015.5 - 0.0
15/04:30am 18.1 15.6 8.1 52 5.1 SSE 11 13 6 7 1015.3 - 0.0
15/04:00am 18.4 15.7 7.5 49 5.6 SSE 11 11 6 6 1015.2 - 0.0
15/03:30am 19.1 16.0 7.2 46 6.1 SSE 13 17 7 9 1015.0 - 0.0
15/03:00am 19.6 16.1 7.0 44 6.4 SSE 15 19 8 10 1015.1 1014.5 0.0
15/02:30am 19.9 16.4 7.0 43 6.6 SSE 15 20 8 11 1015.2 - 0.0
15/02:00am 20.0 16.5 7.1 43 6.6 SSE 15 19 8 10 1015.3 - 0.0
15/01:30am 20.1 16.9 6.8 42 6.8 SSE 13 15 7 8 1015.4 - 0.0
15/01:00am 20.7 17.5 7.0 41 7.0 SSE 13 17 7 9 1015.3 - 0.0
15/12:30am 21.2 18.1 7.4 41 7.1 SSE 13 20 7 11 1015.4 - 0.0
15/12:00am 21.3 18.0 8.2 43 6.9 SSE 15 19 8 10 1015.5 1014.9 0.0
 
Date/Time
EST
Temp
°C
App
Temp
°C
Dew
Point
Rel
Hum
%
Delta-T
°C
Wind Press
QNH
hPa
Press
MSL
hPa
Rain
since 9 am
mm
Dir
 
Spd
km/h
Gust
km/h
Spd
kts
Gust
kts
14/11:30pm 20.8 17.9 8.1 44 6.6 S 13 19 7 10 1015.8 - 0.0
14/11:00pm 21.5 19.0 8.4 43 6.9 SSE 11 13 6 7 1015.7 - 0.0
14/10:30pm 21.8 19.3 8.3 42 7.1 SSE 11 13 6 7 1016.0 - 0.0
14/10:00pm 22.4 19.5 8.1 40 7.6 SSE 13 15 7 8 1016.0 - 0.0
14/09:30pm 22.4 20.0 8.5 41 7.4 SSE 11 13 6 7 1015.8 - 0.0
14/09:00pm 22.8 20.3 8.1 39 7.8 S 11 13 6 7 1015.7 1015.1 0.0
14/08:30pm 23.6 21.1 8.1 37 8.2 SSE 11 13 6 7 1015.4 - 0.0
14/08:00pm 24.1 21.5 7.7 35 8.7 SSE 11 13 6 7 1015.1 - 0.0
14/07:30pm 24.5 22.2 7.6 34 9.0 S 9 11 5 6 1014.8 - 0.0
14/07:00pm 25.4 23.1 7.5 32 9.5 S 9 11 5 6 1014.5 - 0.0
14/06:30pm 26.1 23.4 7.2 30 10.0 SSE 11 13 6 7 1014.0 - 0.0
14/06:00pm 27.1 24.3 7.0 28 10.7 SSE 11 15 6 8 1013.7 1013.1 0.0
14/05:30pm 27.9 24.0 7.2 27 11.1 SSE 17 20 9 11 1013.3 - 0.0
14/05:00pm 28.4 25.0 7.6 27 11.3 SE 15 20 8 11 1013.1 - 0.0
14/04:30pm 28.1 25.4 7.4 27 11.2 S 11 15 6 8 1013.1 - 0.0
14/04:00pm 28.9 25.0 6.9 25 11.8 SE 17 24 9 13 1013.1 - 0.0
14/03:30pm 29.0 26.9 8.1 27 11.5 SE 9 17 5 9 1013.2 - 0.0
14/03:00pm 28.6 25.5 7.2 26 11.5 SSE 13 22 7 12 1013.3 1012.7 0.0
14/02:30pm 28.2 25.3 8.0 28 11.0 ESE 13 20 7 11 1013.5 - 0.0
14/02:00pm 28.5 25.2 8.2 28 11.1 SE 15 20 8 11 1013.5 - 0.0
14/01:30pm 28.5 24.4 7.7 27 11.3 SE 19 26 10 14 1013.7 - 0.0
14/01:00pm 28.7 26.1 9.4 30 10.8 ESE 13 24 7 13 1014.1 - 0.0
14/12:30pm 27.8 24.6 8.6 30 10.5 ESE 15 24 8 13 1014.4 - 0.0
14/12:00pm 28.0 25.0 9.3 31 10.4 ESE 15 20 8 11 1014.9 1014.3 0.0
14/11:30am 26.8 23.7 8.7 32 9.9 ESE 15 26 8 14 1015.3 - 0.0
14/11:00am 26.6 24.2 9.9 35 9.3 SE 13 19 7 10 1015.6 - 0.0
14/10:30am 25.1 22.5 9.4 37 8.6 E 13 19 7 10 1015.8 - 0.0
14/10:00am 24.3 21.6 10.2 41 7.8 SE 15 20 8 11 1016.0 - 0.0
14/09:30am 23.3 20.1 10.0 43 7.3 ESE 17 24 9 13 1016.0 - 0.0
14/09:00am 22.6 19.1 10.1 45 6.9 ESE 19 26 10 14 1015.7 1015.1 0.0
14/08:30am 21.9 18.8 10.4 48 6.3 ESE 17 20 9 11 1015.5 - 0.0
14/08:00am 20.7 17.6 10.2 51 5.7 SE 17 24 9 13 1015.0 - 0.0
14/07:30am 19.2 17.3 10.5 57 4.7 SE 11 17 6 9 1014.7 - 0.0
14/07:00am 18.1 16.2 10.5 61 4.1 SSE 11 13 6 7 1014.3 - 0.0
14/06:30am 18.3 16.8 10.4 60 4.3 SSE 9 13 5 7 1014.3 - 0.0
14/06:00am 18.7 16.8 10.5 59 4.4 SSE 11 15 6 8 1014.1 1013.5 0.0
14/05:30am 19.0 17.2 10.8 59 4.5 SE 11 15 6 8 1013.9 - 0.0
14/05:00am 19.0 17.2 10.8 59 4.5 SSE 11 13 6 7 1013.8 - 0.0
14/04:30am 19.1 17.2 10.6 58 4.6 SSE 11 15 6 8 1013.7 - 0.0
14/04:00am 19.9 18.1 10.9 56 4.9 SE 11 17 6 9 1013.4 - 0.0
14/03:30am 20.2 18.4 10.9 55 5.1 SE 11 15 6 8 1013.2 - 0.0
14/03:00am 20.6 18.4 10.7 53 5.4 SE 13 19 7 10 1013.0 1012.4 0.0
14/02:30am 21.4 18.8 10.6 50 5.9 SE 15 22 8 12 1013.3 - 0.0
14/02:00am 21.9 18.5 10.7 49 6.2 SE 19 28 10 15 1013.5 - 0.0
14/01:30am 21.7 19.1 10.8 50 6.0 SE 15 20 8 11 1013.6 - 0.0
14/01:00am 21.4 19.6 10.9 51 5.8 SSE 11 15 6 8 1013.6 - 0.0
14/12:30am 21.2 19.7 10.4 50 5.9 SE 9 13 5 7 1013.8 - 0.0
14/12:00am 21.7 19.3 10.2 48 6.3 SSE 13 17 7 9 1013.9 1013.3 0.0
 
Date/Time
EST
Temp
°C
App
Temp
°C
Dew
Point
Rel
Hum
%
Delta-T
°C
Wind Press
QNH
hPa
Press
MSL
hPa
Rain
since 9 am
mm
Dir
 
Spd
km/h
Gust
km/h
Spd
kts
Gust
kts
13/11:30pm 21.8 19.3 9.7 46 6.6 SSE 13 15 7 8 1014.2 - 0.0
13/11:00pm 22.0 19.3 8.9 43 7.0 SSE 13 17 7 9 1014.4 - 0.0
13/10:30pm 22.1 19.7 8.6 42 7.2 SSE 11 13 6 7 1014.6 - 0.0
13/10:00pm 22.1 19.7 8.6 42 7.2 S 11 11 6 6 1014.5 - 0.0
13/09:30pm 22.7 20.2 8.4 40 7.6 SSE 11 13 6 7 1014.6 - 0.0
13/09:00pm 23.3 21.2 8.2 38 8.0 SE 9 11 5 6 1014.4 1013.8 0.0
13/08:30pm 24.2 21.6 7.8 35 8.7 SSE 11 15 6 8 1014.0 - 0.0
13/08:00pm 24.9 21.9 7.5 33 9.2 SSE 13 17 7 9 1013.6 - 0.0
13/07:30pm 25.2 22.5 7.3 32 9.5 SSE 11 15 6 8 1013.3 - 0.0
13/07:00pm 25.9 22.7 7.0 30 10.0 SE 13 15 7 8 1013.0 - 0.0
13/06:30pm 26.6 23.1 7.1 29 10.4 SSE 15 20 8 11 1012.4 - 0.0
13/06:00pm 27.4 23.2 7.3 28 10.8 SSE 19 24 10 13 1012.1 1011.4 0.0
13/05:30pm 27.9 23.6 7.7 28 10.9 SSE 20 28 11 15 1011.7 - 0.0

Other Formats:

Comma delimited format used in spreadsheet applications
http://www.bom.gov.au/fwo/IDQ60801/IDQ60801.95492.axf

JavaScript Object Notation format (JSON) in row-major order
http://www.bom.gov.au/fwo/IDQ60801/IDQ60801.95492.json